BAW9 YPPH-YMML
Flight info
| Callsign | BAW9 |
|---|---|
| Flight time | N/A |
| Altitude | 35000 |
| Route | HECTO Y135 TEDUS J15 AD V255 BENDO Y12 ARBEY |
| Aircraft | B742/H-SDFHIRWXY/L |
Departure
| Time | 2026-05-08 06:45 |
|---|---|
| Airport | Perth International Airport (YPPH) |
Arrival
| Time | N/A |
|---|---|
| Airport | Melbourne Airport (YMML) |
| Time | Latitude | Longitude | Altitude | Speed | Heading |
|---|---|---|---|---|---|
| 2026-05-08 06:15 | -31.94065 | 115.97224 | 83 ft | 0 kts | 171° |
| 2026-05-08 06:33 | -31.94047 | 115.97221 | 82 ft | 2 kts | 171° |
| 2026-05-08 06:34 | -31.94032 | 115.97218 | 82 ft | 2 kts | 171° |
| 2026-05-08 06:34 | -31.94017 | 115.97215 | 82 ft | 2 kts | 172° |
| 2026-05-08 06:34 | -31.94002 | 115.97214 | 82 ft | 2 kts | 186° |
| 2026-05-08 06:34 | -31.93987 | 115.97218 | 81 ft | 2 kts | 197° |
| 2026-05-08 06:35 | -31.93973 | 115.97224 | 81 ft | 2 kts | 207° |
| 2026-05-08 06:35 | -31.93960 | 115.97234 | 81 ft | 2 kts | 219° |
| 2026-05-08 06:35 | -31.93950 | 115.97246 | 81 ft | 2 kts | 229° |
| 2026-05-08 06:35 | -31.93941 | 115.97259 | 81 ft | 1 kts | 239° |
| 2026-05-08 06:36 | -31.93939 | 115.97264 | 81 ft | 0 kts | 241° |
| 2026-05-08 06:38 | -31.93955 | 115.97231 | 81 ft | 7 kts | 243° |
| 2026-05-08 06:39 | -31.93955 | 115.97138 | 79 ft | 14 kts | 283° |
| 2026-05-08 06:39 | -31.93922 | 115.96989 | 76 ft | 20 kts | 285° |
| 2026-05-08 06:39 | -31.93928 | 115.96894 | 76 ft | 10 kts | 219° |
| 2026-05-08 06:39 | -31.93987 | 115.96869 | 77 ft | 8 kts | 195° |
| 2026-05-08 06:40 | -31.94041 | 115.96853 | 77 ft | 8 kts | 193° |
| 2026-05-08 06:40 | -31.94140 | 115.96824 | 77 ft | 21 kts | 194° |
| 2026-05-08 06:40 | -31.94321 | 115.96771 | 80 ft | 30 kts | 194° |
| 2026-05-08 06:40 | -31.94542 | 115.96709 | 81 ft | 29 kts | 193° |
| 2026-05-08 06:41 | -31.94740 | 115.96652 | 82 ft | 27 kts | 193° |
| 2026-05-08 06:41 | -31.94919 | 115.96599 | 85 ft | 24 kts | 194° |
| 2026-05-08 06:41 | -31.95080 | 115.96551 | 85 ft | 23 kts | 193° |
| 2026-05-08 06:41 | -31.95243 | 115.96504 | 87 ft | 25 kts | 194° |
| 2026-05-08 06:42 | -31.95369 | 115.96467 | 87 ft | 30 kts | 193° |
| 2026-05-08 06:42 | -31.95671 | 115.96380 | 87 ft | 35 kts | 193° |
| 2026-05-08 06:42 | -31.95869 | 115.96321 | 87 ft | 25 kts | 199° |
| 2026-05-08 06:42 | -31.95918 | 115.96240 | 88 ft | 10 kts | 276° |
| 2026-05-08 06:43 | -31.95909 | 115.96193 | 88 ft | 0 kts | 284° |
| 2026-05-08 06:43 | -31.95904 | 115.96169 | 88 ft | 6 kts | 284° |
| 2026-05-08 06:44 | -31.95883 | 115.96067 | 89 ft | 18 kts | 283° |
| 2026-05-08 06:44 | -31.95851 | 115.95976 | 90 ft | 6 kts | 1° |
| 2026-05-08 06:44 | -31.95844 | 115.95978 | 90 ft | 0 kts | 15° |
| 2026-05-08 06:44 | -31.95693 | 115.96023 | 89 ft | 51 kts | 13° |
| 2026-05-08 06:45 | -31.95147 | 115.96181 | 83 ft | 107 kts | 14° |
| 2026-05-08 06:45 | -31.94246 | 115.96444 | 80 ft | 157 kts | 14° |
| 2026-05-08 06:45 | -31.93118 | 115.96764 | 369 ft | 170 kts | 18° |
| 2026-05-08 06:45 | -31.91956 | 115.97099 | 883 ft | 172 kts | 18° |
| 2026-05-08 06:46 | -31.90787 | 115.97437 | 1457 ft | 173 kts | 18° |
| 2026-05-08 06:46 | -31.89573 | 115.97793 | 1739 ft | 193 kts | 18° |
| 2026-05-08 06:46 | -31.88167 | 115.98226 | 1924 ft | 220 kts | 22° |
| 2026-05-08 06:46 | -31.86778 | 115.99187 | 2090 ft | 245 kts | 49° |
| 2026-05-08 06:47 | -31.85978 | 116.01064 | 2257 ft | 275 kts | 79° |
| 2026-05-08 06:47 | -31.85961 | 116.03461 | 2456 ft | 310 kts | 92° |
| 2026-05-08 06:47 | -31.86058 | 116.06056 | 2714 ft | 328 kts | 86° |
| 2026-05-08 06:47 | -31.85901 | 116.08807 | 3031 ft | 344 kts | 83° |
| 2026-05-08 06:48 | -31.85592 | 116.11649 | 3527 ft | 355 kts | 79° |
| 2026-05-08 06:48 | -31.85142 | 116.14542 | 4140 ft | 363 kts | 77° |
| 2026-05-08 06:48 | -31.84624 | 116.17416 | 4916 ft | 365 kts | 76° |
| 2026-05-08 06:48 | -31.84248 | 116.19397 | 5404 ft | 367 kts | 76° |
| 2026-05-08 06:49 | -31.83494 | 116.23289 | 6361 ft | 372 kts | 76° |
| 2026-05-08 06:49 | -31.83108 | 116.25264 | 6829 ft | 374 kts | 76° |
| 2026-05-08 06:49 | -31.82518 | 116.28283 | 7524 ft | 377 kts | 76° |
| 2026-05-08 06:49 | -31.81929 | 116.31290 | 8160 ft | 381 kts | 76° |
| 2026-05-08 06:50 | -31.81127 | 116.35386 | 9047 ft | 386 kts | 76° |
| 2026-05-08 06:50 | -31.80521 | 116.38474 | 9579 ft | 393 kts | 76° |
| 2026-05-08 06:50 | -31.79898 | 116.41642 | 9940 ft | 403 kts | 76° |
| 2026-05-08 06:50 | -31.79266 | 116.44857 | 10294 ft | 414 kts | 76° |
| 2026-05-08 06:51 | -31.78608 | 116.48196 | 10966 ft | 415 kts | 76° |
| 2026-05-08 06:51 | -31.77960 | 116.51483 | 11636 ft | 417 kts | 76° |
| 2026-05-08 06:51 | -31.77299 | 116.54833 | 12258 ft | 420 kts | 76° |
| 2026-05-08 06:51 | -31.76863 | 116.57038 | 12638 ft | 423 kts | 76° |
| 2026-05-08 06:52 | -31.76184 | 116.60465 | 13254 ft | 426 kts | 76° |
| 2026-05-08 06:52 | -31.75284 | 116.65004 | 14022 ft | 431 kts | 76° |
| 2026-05-08 06:52 | -31.74828 | 116.67296 | 14418 ft | 433 kts | 76° |
| 2026-05-08 06:52 | -31.74142 | 116.70747 | 14991 ft | 437 kts | 76° |
| 2026-05-08 06:53 | -31.73209 | 116.75431 | 15756 ft | 442 kts | 76° |
| 2026-05-08 06:53 | -31.72506 | 116.78954 | 16326 ft | 445 kts | 76° |
| 2026-05-08 06:53 | -31.72039 | 116.81293 | 16712 ft | 447 kts | 76° |
| 2026-05-08 06:53 | -31.71079 | 116.86092 | 17468 ft | 451 kts | 76° |
| 2026-05-08 06:54 | -31.70362 | 116.89669 | 17988 ft | 454 kts | 76° |
| 2026-05-08 06:54 | -31.69630 | 116.93314 | 18522 ft | 458 kts | 76° |
| 2026-05-08 06:54 | -31.68897 | 116.96961 | 19018 ft | 461 kts | 76° |
| 2026-05-08 06:54 | -31.68411 | 116.99375 | 19323 ft | 464 kts | 76° |
| 2026-05-08 06:55 | -31.67671 | 117.03101 | 19820 ft | 467 kts | 77° |
| 2026-05-08 06:55 | -31.67280 | 117.06893 | 20243 ft | 473 kts | 88° |
| 2026-05-08 06:55 | -31.67577 | 117.10808 | 20491 ft | 483 kts | 99° |
| 2026-05-08 06:55 | -31.68420 | 117.14633 | 20727 ft | 492 kts | 105° |
| 2026-05-08 06:56 | -31.69546 | 117.18506 | 21013 ft | 499 kts | 108° |
| 2026-05-08 06:56 | -31.70756 | 117.22301 | 21545 ft | 499 kts | 109° |
| 2026-05-08 06:56 | -31.72411 | 117.27396 | 22103 ft | 503 kts | 109° |
| 2026-05-08 06:56 | -31.73233 | 117.29944 | 22365 ft | 504 kts | 109° |
| 2026-05-08 06:57 | -31.74464 | 117.33797 | 22966 ft | 502 kts | 109° |
| 2026-05-08 06:57 | -31.76088 | 117.38941 | 23808 ft | 498 kts | 109° |
| 2026-05-08 06:57 | -31.76882 | 117.41470 | 24173 ft | 497 kts | 109° |
| 2026-05-08 06:57 | -31.78073 | 117.45284 | 24677 ft | 496 kts | 109° |
| 2026-05-08 06:58 | -31.79254 | 117.49070 | 25139 ft | 496 kts | 109° |
| 2026-05-08 06:58 | -31.80454 | 117.52926 | 25621 ft | 495 kts | 109° |
| 2026-05-08 06:58 | -31.82021 | 117.57970 | 26236 ft | 494 kts | 109° |
| 2026-05-08 06:58 | -31.82812 | 117.60516 | 26570 ft | 493 kts | 109° |
| 2026-05-08 06:59 | -31.83984 | 117.64296 | 27011 ft | 492 kts | 109° |
| 2026-05-08 06:59 | -31.85169 | 117.68121 | 27422 ft | 491 kts | 109° |
| 2026-05-08 06:59 | -31.86715 | 117.73116 | 27988 ft | 490 kts | 109° |
| 2026-05-08 06:59 | -31.87884 | 117.76901 | 28366 ft | 489 kts | 109° |
| 2026-05-08 07:00 | -31.89048 | 117.80673 | 28750 ft | 489 kts | 109° |
| 2026-05-08 07:00 | -31.90202 | 117.84418 | 29097 ft | 489 kts | 109° |
| 2026-05-08 07:00 | -31.90972 | 117.86917 | 29350 ft | 488 kts | 109° |
| 2026-05-08 07:00 | -31.92130 | 117.90679 | 29769 ft | 486 kts | 109° |
| 2026-05-08 07:01 | -31.93281 | 117.94427 | 30171 ft | 484 kts | 109° |
| 2026-05-08 07:01 | -31.94416 | 117.98125 | 30499 ft | 483 kts | 109° |
| 2026-05-08 07:01 | -31.95555 | 118.01843 | 30742 ft | 484 kts | 109° |
| 2026-05-08 07:01 | -31.96692 | 118.05557 | 31017 ft | 484 kts | 109° |
| 2026-05-08 07:02 | -31.97845 | 118.09327 | 31345 ft | 483 kts | 110° |
| 2026-05-08 07:02 | -31.99353 | 118.14265 | 31653 ft | 484 kts | 110° |
| 2026-05-08 07:02 | -32.00117 | 118.16771 | 31820 ft | 484 kts | 110° |
| 2026-05-08 07:02 | -32.01638 | 118.21762 | 32156 ft | 485 kts | 110° |
| 2026-05-08 07:03 | -32.02389 | 118.24232 | 32305 ft | 485 kts | 110° |
| 2026-05-08 07:03 | -32.03535 | 118.28001 | 32548 ft | 485 kts | 110° |
| 2026-05-08 07:03 | -32.05051 | 118.32999 | 32890 ft | 484 kts | 110° |
| 2026-05-08 07:03 | -32.05824 | 118.35484 | 33052 ft | 484 kts | 111° |
| 2026-05-08 07:04 | -32.07579 | 118.40288 | 33525 ft | 480 kts | 115° |
| 2026-05-08 07:04 | -32.08538 | 118.42638 | 33668 ft | 480 kts | 117° |
| 2026-05-08 07:04 | -32.10051 | 118.46156 | 33839 ft | 481 kts | 118° |
| 2026-05-08 07:04 | -32.11614 | 118.49670 | 34015 ft | 481 kts | 118° |
| 2026-05-08 07:05 | -32.13169 | 118.53123 | 34186 ft | 481 kts | 118° |
| 2026-05-08 07:05 | -32.14760 | 118.56645 | 34358 ft | 481 kts | 118° |
| 2026-05-08 07:05 | -32.16846 | 118.61265 | 34591 ft | 481 kts | 118° |
| 2026-05-08 07:05 | -32.17900 | 118.63602 | 34720 ft | 480 kts | 118° |
| 2026-05-08 07:06 | -32.19976 | 118.68214 | 34919 ft | 480 kts | 118° |
| 2026-05-08 07:06 | -32.21021 | 118.70540 | 35018 ft | 480 kts | 118° |
| 2026-05-08 07:06 | -32.22590 | 118.74038 | 35156 ft | 481 kts | 118° |
| 2026-05-08 07:06 | -32.24668 | 118.78676 | 35343 ft | 481 kts | 118° |
| 2026-05-08 07:07 | -32.27271 | 118.84492 | 35403 ft | 485 kts | 118° |
| 2026-05-08 07:07 | -32.30434 | 118.91572 | 35413 ft | 484 kts | 118° |
| 2026-05-08 07:08 | -32.33544 | 118.98550 | 35413 ft | 480 kts | 118° |
| 2026-05-08 07:08 | -32.36658 | 119.05547 | 35409 ft | 479 kts | 118° |
| 2026-05-08 07:09 | -32.39754 | 119.12517 | 35400 ft | 480 kts | 118° |
| 2026-05-08 07:09 | -32.42881 | 119.19572 | 35409 ft | 479 kts | 118° |
| 2026-05-08 07:10 | -32.45963 | 119.26541 | 35400 ft | 478 kts | 118° |
| 2026-05-08 07:10 | -32.49029 | 119.33485 | 35418 ft | 478 kts | 118° |
| 2026-05-08 07:11 | -32.52106 | 119.40466 | 35414 ft | 477 kts | 118° |
| 2026-05-08 07:11 | -32.55682 | 119.48597 | 35424 ft | 477 kts | 118° |
| 2026-05-08 07:12 | -32.58224 | 119.54388 | 35432 ft | 476 kts | 118° |
| 2026-05-08 07:12 | -32.61285 | 119.61375 | 35445 ft | 475 kts | 118° |
| 2026-05-08 07:13 | -32.64339 | 119.68360 | 35432 ft | 476 kts | 117° |
| 2026-05-08 07:13 | -32.67373 | 119.75313 | 35440 ft | 476 kts | 117° |
| 2026-05-08 07:14 | -32.70913 | 119.83439 | 35446 ft | 475 kts | 117° |
| 2026-05-08 07:14 | -32.73442 | 119.89259 | 35439 ft | 475 kts | 117° |
| 2026-05-08 07:15 | -32.76457 | 119.96207 | 35440 ft | 474 kts | 117° |
| 2026-05-08 07:15 | -32.79992 | 120.04372 | 35442 ft | 474 kts | 117° |
| 2026-05-08 07:16 | -32.82984 | 120.11298 | 35427 ft | 475 kts | 117° |
| 2026-05-08 07:16 | -32.85494 | 120.17117 | 35451 ft | 475 kts | 117° |
| 2026-05-08 07:17 | -32.89001 | 120.25265 | 35438 ft | 473 kts | 117° |
| 2026-05-08 07:17 | -32.91486 | 120.31051 | 35452 ft | 473 kts | 117° |
| 2026-05-08 07:18 | -32.94484 | 120.38041 | 35449 ft | 473 kts | 117° |
| 2026-05-08 07:18 | -32.97466 | 120.45010 | 35449 ft | 473 kts | 117° |
| 2026-05-08 07:19 | -32.99987 | 120.52222 | 35447 ft | 472 kts | 106° |
| 2026-05-08 07:19 | -33.01462 | 120.59845 | 35452 ft | 474 kts | 101° |
| 2026-05-08 07:20 | -33.02644 | 120.67595 | 35455 ft | 475 kts | 100° |
| 2026-05-08 07:20 | -33.03966 | 120.76592 | 35459 ft | 473 kts | 99° |
| 2026-05-08 07:21 | -33.04918 | 120.83062 | 35452 ft | 474 kts | 100° |
| 2026-05-08 07:21 | -33.06063 | 120.90834 | 35453 ft | 474 kts | 100° |
| 2026-05-08 07:22 | -33.07389 | 120.99860 | 35455 ft | 473 kts | 99° |
| 2026-05-08 07:22 | -33.08326 | 121.06269 | 35470 ft | 473 kts | 99° |
| 2026-05-08 07:23 | -33.09454 | 121.14017 | 35458 ft | 474 kts | 99° |
| 2026-05-08 07:23 | -33.10576 | 121.21757 | 35474 ft | 474 kts | 99° |
| 2026-05-08 07:24 | -33.11691 | 121.29482 | 35479 ft | 474 kts | 99° |
| 2026-05-08 07:24 | -33.12801 | 121.37213 | 35481 ft | 474 kts | 99° |
| 2026-05-08 07:25 | -33.13911 | 121.44980 | 35474 ft | 472 kts | 99° |
| 2026-05-08 07:26 | -33.15552 | 121.56520 | 35492 ft | 472 kts | 99° |
| 2026-05-08 07:26 | -33.16822 | 121.65507 | 35484 ft | 473 kts | 98° |
| 2026-05-08 07:27 | -33.17733 | 121.71985 | 35488 ft | 473 kts | 98° |
| 2026-05-08 07:27 | -33.18818 | 121.79706 | 35481 ft | 473 kts | 99° |
| 2026-05-08 07:28 | -33.20029 | 121.87397 | 35482 ft | 473 kts | 100° |
| 2026-05-08 07:28 | -33.21342 | 121.95081 | 35490 ft | 472 kts | 101° |
| 2026-05-08 07:29 | -33.22683 | 122.02796 | 35488 ft | 472 kts | 101° |
| 2026-05-08 07:29 | -33.24231 | 122.11727 | 35489 ft | 472 kts | 101° |
| 2026-05-08 07:30 | -33.25332 | 122.18111 | 35489 ft | 472 kts | 101° |
| 2026-05-08 07:30 | -33.26653 | 122.25789 | 35494 ft | 472 kts | 101° |
| 2026-05-08 07:31 | -33.27969 | 122.33477 | 35498 ft | 473 kts | 101° |
| 2026-05-08 07:31 | -33.29503 | 122.42473 | 35493 ft | 473 kts | 101° |
| 2026-05-08 07:32 | -33.30806 | 122.50153 | 35496 ft | 472 kts | 101° |
| 2026-05-08 07:32 | -33.31891 | 122.56561 | 35499 ft | 472 kts | 101° |
| 2026-05-08 07:33 | -33.33181 | 122.64217 | 35516 ft | 472 kts | 101° |
| 2026-05-08 07:33 | -33.34478 | 122.71938 | 35502 ft | 472 kts | 100° |
| 2026-05-08 07:34 | -33.35755 | 122.79579 | 35512 ft | 472 kts | 100° |
| 2026-05-08 07:34 | -33.37041 | 122.87300 | 35504 ft | 472 kts | 100° |
| 2026-05-08 07:35 | -33.38311 | 122.94957 | 35509 ft | 471 kts | 100° |
| 2026-05-08 07:35 | -33.39791 | 123.03919 | 35505 ft | 471 kts | 100° |
| 2026-05-08 07:36 | -33.40852 | 123.10361 | 35511 ft | 471 kts | 100° |
| 2026-05-08 07:36 | -33.42115 | 123.18073 | 35508 ft | 472 kts | 100° |
| 2026-05-08 07:37 | -33.43370 | 123.25757 | 35504 ft | 471 kts | 100° |
| 2026-05-08 07:37 | -33.44622 | 123.33459 | 35504 ft | 471 kts | 100° |
| 2026-05-08 07:38 | -33.45875 | 123.41202 | 35510 ft | 472 kts | 100° |
| 2026-05-08 07:38 | -33.47117 | 123.48904 | 35508 ft | 471 kts | 100° |
| 2026-05-08 07:39 | -33.48354 | 123.56605 | 35516 ft | 471 kts | 100° |
| 2026-05-08 07:39 | -33.49785 | 123.65559 | 35520 ft | 471 kts | 99° |
| 2026-05-08 07:40 | -33.50816 | 123.72040 | 35524 ft | 471 kts | 99° |
| 2026-05-08 07:40 | -33.52036 | 123.79726 | 35522 ft | 471 kts | 99° |
| 2026-05-08 07:41 | -33.53254 | 123.87444 | 35526 ft | 471 kts | 99° |
| 2026-05-08 07:41 | -33.54468 | 123.95164 | 35526 ft | 470 kts | 99° |
| 2026-05-08 07:42 | -33.55677 | 124.02886 | 35525 ft | 471 kts | 99° |
| 2026-05-08 07:42 | -33.56880 | 124.10603 | 35526 ft | 470 kts | 99° |
| 2026-05-08 07:43 | -33.58080 | 124.18329 | 35520 ft | 470 kts | 99° |
| 2026-05-08 07:43 | -33.59468 | 124.27312 | 35521 ft | 471 kts | 99° |
| 2026-05-08 07:44 | -33.60460 | 124.33759 | 35530 ft | 471 kts | 99° |
| 2026-05-08 07:44 | -33.61837 | 124.42748 | 35533 ft | 470 kts | 99° |
| 2026-05-08 07:45 | -33.62823 | 124.49210 | 35529 ft | 470 kts | 99° |
| 2026-05-08 07:45 | -33.63999 | 124.56950 | 35535 ft | 470 kts | 99° |
| 2026-05-08 07:46 | -33.65171 | 124.64703 | 35534 ft | 470 kts | 99° |
| 2026-05-08 07:46 | -33.66328 | 124.72379 | 35540 ft | 471 kts | 99° |
| 2026-05-08 07:47 | -33.67488 | 124.80115 | 35542 ft | 471 kts | 99° |
| 2026-05-08 07:47 | -33.68637 | 124.87818 | 35544 ft | 470 kts | 99° |
| 2026-05-08 07:48 | -33.69783 | 124.95524 | 35549 ft | 469 kts | 99° |
| 2026-05-08 07:48 | -33.70925 | 125.03254 | 35545 ft | 469 kts | 99° |
| 2026-05-08 07:49 | -33.72055 | 125.10932 | 35545 ft | 470 kts | 99° |
| 2026-05-08 07:49 | -33.73193 | 125.18697 | 35540 ft | 470 kts | 99° |
| 2026-05-08 07:50 | -33.74314 | 125.26384 | 35536 ft | 470 kts | 99° |
| 2026-05-08 07:50 | -33.75440 | 125.34135 | 35537 ft | 474 kts | 99° |
| 2026-05-08 07:51 | -33.76565 | 125.41924 | 35537 ft | 471 kts | 99° |
| 2026-05-08 07:51 | -33.77860 | 125.50923 | 35545 ft | 468 kts | 99° |
| 2026-05-08 07:52 | -33.78780 | 125.57354 | 35544 ft | 470 kts | 99° |
| 2026-05-08 07:52 | -33.79881 | 125.65087 | 35545 ft | 471 kts | 98° |
| 2026-05-08 07:53 | -33.80983 | 125.72855 | 35550 ft | 470 kts | 98° |
| 2026-05-08 07:53 | -33.82259 | 125.81889 | 35552 ft | 470 kts | 98° |
| 2026-05-08 07:54 | -33.83170 | 125.88372 | 35548 ft | 470 kts | 98° |
| 2026-05-08 07:54 | -33.84246 | 125.96064 | 35546 ft | 469 kts | 98° |
| 2026-05-08 07:55 | -33.85324 | 126.03809 | 35547 ft | 470 kts | 98° |
| 2026-05-08 07:55 | -33.86394 | 126.11533 | 35544 ft | 470 kts | 98° |
| 2026-05-08 07:56 | -33.87460 | 126.19270 | 35546 ft | 470 kts | 98° |
| 2026-05-08 07:56 | -33.88530 | 126.27062 | 35549 ft | 471 kts | 98° |
| 2026-05-08 07:57 | -33.89592 | 126.34835 | 35553 ft | 470 kts | 98° |
| 2026-05-08 07:57 | -33.90649 | 126.42615 | 35545 ft | 471 kts | 98° |
| 2026-05-08 07:58 | -33.91699 | 126.50374 | 35536 ft | 471 kts | 98° |
| 2026-05-08 07:58 | -33.92914 | 126.59407 | 35540 ft | 469 kts | 98° |
| 2026-05-08 07:59 | -33.93952 | 126.67165 | 35551 ft | 470 kts | 98° |
| 2026-05-08 07:59 | -33.94820 | 126.73686 | 35553 ft | 471 kts | 98° |
| 2026-05-08 08:00 | -33.95845 | 126.81411 | 35551 ft | 470 kts | 98° |
| 2026-05-08 08:00 | -33.96877 | 126.89234 | 35553 ft | 471 kts | 98° |
| 2026-05-08 08:01 | -33.97896 | 126.96995 | 35555 ft | 473 kts | 98° |
| 2026-05-08 08:01 | -33.98921 | 127.04843 | 35553 ft | 472 kts | 97° |
| 2026-05-08 08:02 | -34.00098 | 127.13903 | 35550 ft | 470 kts | 97° |
| 2026-05-08 08:02 | -34.01106 | 127.21708 | 35552 ft | 471 kts | 98° |
| 2026-05-08 08:03 | -34.02106 | 127.29488 | 35549 ft | 471 kts | 98° |
| 2026-05-08 08:03 | -34.02944 | 127.36040 | 35549 ft | 472 kts | 98° |
| 2026-05-08 08:04 | -34.04104 | 127.45152 | 35555 ft | 472 kts | 98° |
| 2026-05-08 08:04 | -34.04921 | 127.51611 | 35552 ft | 472 kts | 98° |
| 2026-05-08 08:05 | -34.05907 | 127.59433 | 35555 ft | 470 kts | 98° |
| 2026-05-08 08:05 | -34.06886 | 127.67245 | 35545 ft | 471 kts | 97° |
| 2026-05-08 08:06 | -34.08020 | 127.76350 | 35535 ft | 472 kts | 97° |
| 2026-05-08 08:06 | -34.08985 | 127.84133 | 35532 ft | 472 kts | 97° |
| 2026-05-08 08:07 | -34.09951 | 127.91978 | 35533 ft | 472 kts | 97° |
| 2026-05-08 08:07 | -34.10746 | 127.98468 | 35538 ft | 471 kts | 97° |
| 2026-05-08 08:08 | -34.11698 | 128.06274 | 35539 ft | 471 kts | 98° |
| 2026-05-08 08:08 | -34.12650 | 128.14107 | 35540 ft | 472 kts | 98° |
| 2026-05-08 08:09 | -34.13598 | 128.21951 | 35549 ft | 473 kts | 98° |
| 2026-05-08 08:09 | -34.14693 | 128.31084 | 35551 ft | 473 kts | 98° |
| 2026-05-08 08:10 | -34.15472 | 128.37605 | 35552 ft | 473 kts | 97° |
| 2026-05-08 08:10 | -34.16405 | 128.45470 | 35548 ft | 472 kts | 98° |
| 2026-05-08 08:11 | -34.17331 | 128.53313 | 35557 ft | 472 kts | 98° |
| 2026-05-08 08:11 | -34.18247 | 128.61112 | 35556 ft | 472 kts | 98° |
| 2026-05-08 08:12 | -34.19166 | 128.68980 | 35558 ft | 473 kts | 97° |
| 2026-05-08 08:12 | -34.20077 | 128.76828 | 35557 ft | 473 kts | 97° |
| 2026-05-08 08:13 | -34.21137 | 128.86015 | 35554 ft | 473 kts | 97° |
| 2026-05-08 08:13 | -34.21886 | 128.92555 | 35550 ft | 473 kts | 97° |
| 2026-05-08 08:14 | -34.22932 | 129.01721 | 35542 ft | 473 kts | 97° |
| 2026-05-08 08:14 | -34.23678 | 129.08304 | 35536 ft | 472 kts | 97° |
| 2026-05-08 08:15 | -34.24560 | 129.16122 | 35540 ft | 472 kts | 97° |
| 2026-05-08 08:15 | -34.25444 | 129.24007 | 35535 ft | 473 kts | 97° |
| 2026-05-08 08:16 | -34.26317 | 129.31842 | 35538 ft | 474 kts | 97° |
| 2026-05-08 08:16 | -34.27191 | 129.39732 | 35534 ft | 474 kts | 97° |
| 2026-05-08 08:17 | -34.28058 | 129.47606 | 35535 ft | 473 kts | 97° |
| 2026-05-08 08:17 | -34.28922 | 129.55501 | 35537 ft | 474 kts | 97° |
| 2026-05-08 08:18 | -34.29925 | 129.64722 | 35538 ft | 474 kts | 97° |
| 2026-05-08 08:18 | -34.30636 | 129.71303 | 35542 ft | 474 kts | 97° |
| 2026-05-08 08:19 | -34.31628 | 129.80536 | 35541 ft | 474 kts | 97° |
| 2026-05-08 08:19 | -34.32327 | 129.87082 | 35537 ft | 474 kts | 97° |
| 2026-05-08 08:20 | -34.33168 | 129.95006 | 35538 ft | 476 kts | 97° |
| 2026-05-08 08:20 | -34.34012 | 130.03009 | 35540 ft | 477 kts | 97° |
| 2026-05-08 08:21 | -34.34837 | 130.10883 | 35526 ft | 476 kts | 97° |
| 2026-05-08 08:21 | -34.35666 | 130.18846 | 35527 ft | 476 kts | 97° |
| 2026-05-08 08:22 | -34.36492 | 130.26823 | 35529 ft | 477 kts | 97° |
| 2026-05-08 08:22 | -34.37312 | 130.34801 | 35530 ft | 476 kts | 97° |
| 2026-05-08 08:23 | -34.38125 | 130.42760 | 35530 ft | 476 kts | 97° |
| 2026-05-08 08:23 | -34.39063 | 130.52016 | 35530 ft | 476 kts | 97° |
| 2026-05-08 08:24 | -34.39734 | 130.58672 | 35528 ft | 476 kts | 97° |
| 2026-05-08 08:24 | -34.40531 | 130.66628 | 35532 ft | 476 kts | 96° |
| 2026-05-08 08:25 | -34.41319 | 130.74558 | 35534 ft | 476 kts | 96° |
| 2026-05-08 08:25 | -34.42106 | 130.82524 | 35537 ft | 476 kts | 96° |
| 2026-05-08 08:26 | -34.42890 | 130.90511 | 35538 ft | 477 kts | 96° |
| 2026-05-08 08:26 | -34.43796 | 130.99808 | 35536 ft | 476 kts | 96° |
| 2026-05-08 08:27 | -34.44434 | 131.06400 | 35533 ft | 475 kts | 96° |
| 2026-05-08 08:27 | -34.45200 | 131.14371 | 35533 ft | 475 kts | 96° |
| 2026-05-08 08:28 | -34.45961 | 131.22343 | 35530 ft | 475 kts | 96° |
| 2026-05-08 08:28 | -34.46714 | 131.30290 | 35524 ft | 475 kts | 96° |
| 2026-05-08 08:29 | -34.47462 | 131.38238 | 35521 ft | 476 kts | 96° |
| 2026-05-08 08:29 | -34.48208 | 131.46216 | 35518 ft | 475 kts | 96° |
| 2026-05-08 08:30 | -34.48946 | 131.54167 | 35518 ft | 474 kts | 96° |
| 2026-05-08 08:30 | -34.50048 | 131.66116 | 35517 ft | 474 kts | 96° |
| 2026-05-08 08:31 | -34.50776 | 131.74080 | 35517 ft | 474 kts | 96° |
| 2026-05-08 08:31 | -34.51498 | 131.82048 | 35515 ft | 474 kts | 96° |
| 2026-05-08 08:32 | -34.52212 | 131.89980 | 35514 ft | 473 kts | 96° |
| 2026-05-08 08:32 | -34.52924 | 131.97943 | 35515 ft | 474 kts | 96° |
| 2026-05-08 08:33 | -34.53627 | 132.05878 | 35517 ft | 474 kts | 96° |
| 2026-05-08 08:33 | -34.54325 | 132.13806 | 35515 ft | 472 kts | 96° |
| 2026-05-08 08:34 | -34.55021 | 132.21771 | 35517 ft | 472 kts | 96° |
| 2026-05-08 08:34 | -34.55706 | 132.29680 | 35520 ft | 471 kts | 96° |
| 2026-05-08 08:35 | -34.56388 | 132.37605 | 35715 ft | 472 kts | 96° |
| 2026-05-08 08:35 | -34.56727 | 132.41563 | 35465 ft | 472 kts | 96° |
| 2026-05-08 08:35 | -34.57062 | 132.45499 | 35506 ft | 470 kts | 96° |
| 2026-05-08 08:36 | -34.57736 | 132.53447 | 35526 ft | 472 kts | 96° |
| 2026-05-08 08:36 | -34.58396 | 132.61302 | 35544 ft | 465 kts | 95° |
| 2026-05-08 08:37 | -34.59049 | 132.69124 | 35511 ft | 468 kts | 95° |
| 2026-05-08 08:37 | -34.59700 | 132.77006 | 35503 ft | 468 kts | 95° |
| 2026-05-08 08:38 | -34.60347 | 132.84882 | 35502 ft | 468 kts | 95° |
| 2026-05-08 08:38 | -34.60985 | 132.92714 | 35496 ft | 468 kts | 95° |
| 2026-05-08 08:39 | -34.61621 | 133.00584 | 35497 ft | 468 kts | 95° |
| 2026-05-08 08:39 | -34.62247 | 133.08400 | 35492 ft | 466 kts | 95° |
| 2026-05-08 08:40 | -34.62870 | 133.16238 | 35495 ft | 466 kts | 95° |
| 2026-05-08 08:40 | -34.63483 | 133.24022 | 35499 ft | 466 kts | 95° |
| 2026-05-08 08:41 | -34.64097 | 133.31865 | 35414 ft | 463 kts | 95° |
| 2026-05-08 08:41 | -34.64702 | 133.39685 | 35499 ft | 467 kts | 95° |
| 2026-05-08 08:42 | -34.65308 | 133.47562 | 35501 ft | 471 kts | 95° |
| 2026-05-08 08:42 | -34.65910 | 133.55461 | 35502 ft | 467 kts | 95° |
| 2026-05-08 08:43 | -34.66503 | 133.63303 | 35500 ft | 465 kts | 95° |
| 2026-05-08 08:43 | -34.67090 | 133.71138 | 35499 ft | 466 kts | 94° |
| 2026-05-08 08:44 | -34.67673 | 133.78998 | 35494 ft | 467 kts | 94° |
| 2026-05-08 08:44 | -34.68247 | 133.86793 | 35484 ft | 466 kts | 94° |
| 2026-05-08 08:45 | -34.68820 | 133.94647 | 35475 ft | 464 kts | 94° |
| 2026-05-08 08:45 | -34.69386 | 134.02478 | 35474 ft | 464 kts | 94° |
| 2026-05-08 08:46 | -34.69944 | 134.10255 | 35470 ft | 464 kts | 94° |
| 2026-05-08 08:46 | -34.70500 | 134.18097 | 35468 ft | 464 kts | 94° |
| 2026-05-08 08:47 | -34.71049 | 134.25900 | 35473 ft | 465 kts | 94° |
| 2026-05-08 08:47 | -34.71596 | 134.33749 | 35477 ft | 464 kts | 94° |
| 2026-05-08 08:48 | -34.72135 | 134.41545 | 35479 ft | 464 kts | 94° |
| 2026-05-08 08:48 | -34.72669 | 134.49358 | 35478 ft | 463 kts | 94° |
| 2026-05-08 08:49 | -34.73198 | 134.57153 | 35478 ft | 464 kts | 94° |
| 2026-05-08 08:49 | -34.73723 | 134.64978 | 35477 ft | 463 kts | 94° |
| 2026-05-08 08:50 | -34.74242 | 134.72789 | 35475 ft | 464 kts | 94° |
| 2026-05-08 08:50 | -34.74757 | 134.80608 | 35474 ft | 462 kts | 94° |
| 2026-05-08 08:51 | -34.75263 | 134.88382 | 35473 ft | 462 kts | 94° |
| 2026-05-08 08:51 | -34.75768 | 134.96214 | 35471 ft | 463 kts | 94° |
| 2026-05-08 08:52 | -34.76265 | 135.04015 | 35472 ft | 462 kts | 94° |
| 2026-05-08 08:52 | -34.76755 | 135.11774 | 35473 ft | 463 kts | 94° |
| 2026-05-08 08:53 | -34.77243 | 135.19594 | 35661 ft | 464 kts | 94° |
| 2026-05-08 08:53 | -34.77486 | 135.23514 | 35499 ft | 464 kts | 94° |
| 2026-05-08 08:53 | -34.77727 | 135.27429 | 35461 ft | 459 kts | 94° |
| 2026-05-08 08:54 | -34.78197 | 135.35118 | 35456 ft | 456 kts | 94° |
| 2026-05-08 08:54 | -34.78513 | 135.40340 | 35463 ft | 458 kts | 94° |
| 2026-05-08 08:55 | -34.78729 | 135.43929 | 35464 ft | 461 kts | 94° |
| 2026-05-08 08:55 | -34.79200 | 135.51813 | 35462 ft | 460 kts | 94° |
| 2026-05-08 08:56 | -34.79471 | 135.56400 | 35459 ft | 458 kts | 94° |
| 2026-05-08 08:56 | -34.79606 | 135.58687 | 35461 ft | 458 kts | 94° |
| 2026-05-08 08:57 | -34.80038 | 135.66067 | 35461 ft | 459 kts | 94° |
| 2026-05-08 08:57 | -34.80487 | 135.73827 | 35460 ft | 459 kts | 94° |
| 2026-05-08 08:58 | -34.80931 | 135.81567 | 35455 ft | 458 kts | 94° |
| 2026-05-08 08:58 | -34.81369 | 135.89304 | 35457 ft | 460 kts | 94° |
| 2026-05-08 08:59 | -34.81804 | 135.97099 | 35456 ft | 460 kts | 94° |
| 2026-05-08 08:59 | -34.82232 | 136.04822 | 35450 ft | 457 kts | 94° |
| 2026-05-08 09:00 | -34.82655 | 136.12549 | 35448 ft | 457 kts | 94° |
| 2026-05-08 09:00 | -34.83074 | 136.20299 | 35448 ft | 459 kts | 94° |
| 2026-05-08 09:01 | -34.83488 | 136.28050 | 35444 ft | 458 kts | 94° |
| 2026-05-08 09:01 | -34.83895 | 136.35770 | 35444 ft | 459 kts | 94° |
| 2026-05-08 09:02 | -34.84297 | 136.43492 | 35448 ft | 460 kts | 94° |
| 2026-05-08 09:02 | -34.84698 | 136.51283 | 35456 ft | 462 kts | 94° |
| 2026-05-08 09:03 | -34.85094 | 136.59062 | 35456 ft | 462 kts | 94° |
| 2026-05-08 09:03 | -34.85487 | 136.66891 | 35459 ft | 462 kts | 94° |
| 2026-05-08 09:04 | -34.85873 | 136.74689 | 35462 ft | 464 kts | 94° |
| 2026-05-08 09:04 | -34.86255 | 136.82497 | 35455 ft | 463 kts | 94° |
| 2026-05-08 09:05 | -34.86633 | 136.90312 | 35457 ft | 463 kts | 94° |
| 2026-05-08 09:05 | -34.87006 | 136.98169 | 35450 ft | 464 kts | 94° |
| 2026-05-08 09:06 | -34.87375 | 137.06017 | 35448 ft | 463 kts | 94° |
| 2026-05-08 09:06 | -34.87738 | 137.13844 | 35444 ft | 465 kts | 94° |
| 2026-05-08 09:07 | -34.88096 | 137.21692 | 35438 ft | 464 kts | 94° |
| 2026-05-08 09:07 | -34.88449 | 137.29523 | 35424 ft | 464 kts | 94° |
| 2026-05-08 09:08 | -34.88795 | 137.37341 | 35424 ft | 464 kts | 94° |
| 2026-05-08 09:08 | -34.89138 | 137.45165 | 35424 ft | 462 kts | 94° |
| 2026-05-08 09:09 | -34.89474 | 137.52971 | 35414 ft | 461 kts | 94° |
| 2026-05-08 09:09 | -34.89807 | 137.60854 | 35415 ft | 464 kts | 94° |
| 2026-05-08 09:10 | -34.90135 | 137.68690 | 35415 ft | 464 kts | 93° |
| 2026-05-08 09:10 | -34.90459 | 137.76581 | 35417 ft | 463 kts | 93° |
| 2026-05-08 09:11 | -34.90774 | 137.84374 | 35413 ft | 463 kts | 93° |
| 2026-05-08 09:11 | -34.91088 | 137.92239 | 35409 ft | 464 kts | 93° |
| 2026-05-08 09:12 | -34.91394 | 138.00092 | 35410 ft | 463 kts | 94° |
| 2026-05-08 09:12 | -34.91696 | 138.07939 | 35412 ft | 465 kts | 94° |
| 2026-05-08 09:13 | -34.91999 | 138.15909 | 35410 ft | 465 kts | 93° |
| 2026-05-08 09:13 | -34.92292 | 138.23808 | 35411 ft | 463 kts | 93° |
| 2026-05-08 09:14 | -34.92580 | 138.31679 | 35410 ft | 463 kts | 93° |
| 2026-05-08 09:14 | -34.92862 | 138.39561 | 35412 ft | 463 kts | 93° |
| 2026-05-08 09:15 | -34.93173 | 138.47417 | 35410 ft | 462 kts | 97° |
| 2026-05-08 09:15 | -34.94585 | 138.55078 | 35420 ft | 463 kts | 108° |
| 2026-05-08 09:16 | -34.96703 | 138.62508 | 35417 ft | 463 kts | 110° |
| 2026-05-08 09:16 | -34.98924 | 138.69807 | 35415 ft | 460 kts | 110° |
| 2026-05-08 09:17 | -35.01156 | 138.77132 | 35415 ft | 461 kts | 110° |
| 2026-05-08 09:17 | -35.03396 | 138.84523 | 35411 ft | 463 kts | 110° |
| 2026-05-08 09:18 | -35.05614 | 138.91875 | 35406 ft | 461 kts | 110° |
| 2026-05-08 09:18 | -35.07818 | 138.99197 | 35407 ft | 460 kts | 110° |
| 2026-05-08 09:19 | -35.10006 | 139.06493 | 35405 ft | 459 kts | 110° |
| 2026-05-08 09:19 | -35.12207 | 139.13847 | 35406 ft | 460 kts | 110° |
| 2026-05-08 09:20 | -35.14380 | 139.21123 | 35402 ft | 460 kts | 110° |
| 2026-05-08 09:20 | -35.16581 | 139.28513 | 35406 ft | 460 kts | 110° |
| 2026-05-08 09:21 | -35.18766 | 139.35869 | 35402 ft | 460 kts | 110° |
| 2026-05-08 09:23 | -35.27125 | 139.61144 | 35385 ft | 459 kts | 115° |
| 2026-05-08 09:23 | -35.29773 | 139.68283 | 35387 ft | 459 kts | 114° |
| 2026-05-08 09:24 | -35.32397 | 139.75360 | 35387 ft | 459 kts | 114° |
| 2026-05-08 09:24 | -35.35030 | 139.82478 | 35383 ft | 458 kts | 114° |
| 2026-05-08 09:25 | -35.37637 | 139.89545 | 35377 ft | 458 kts | 114° |
| 2026-05-08 09:25 | -35.40255 | 139.96658 | 35371 ft | 458 kts | 114° |